createdAt,value
2023-03-22T00:00:27.368Z,9.65
2023-03-22T00:02:53.703Z,9.75
2023-03-22T00:05:20.015Z,9.24
2023-03-22T00:07:46.296Z,10.09
2023-03-22T00:10:12.862Z,10.30
2023-03-22T00:12:39.160Z,9.17
2023-03-22T00:15:05.441Z,8.61
2023-03-22T00:17:31.718Z,10.16
2023-03-22T00:19:58.005Z,11.09
2023-03-22T00:22:24.307Z,10.86
2023-03-22T00:24:50.583Z,10.58
2023-03-22T00:27:16.879Z,10.76
2023-03-22T00:29:43.126Z,10.74
2023-03-22T00:32:09.384Z,10.93
2023-03-22T00:34:35.676Z,11.51
2023-03-22T00:37:01.960Z,11.14
2023-03-22T00:39:28.256Z,11.51
2023-03-22T00:41:54.530Z,10.65
2023-03-22T00:44:20.799Z,10.63
2023-03-22T00:46:47.052Z,10.45
2023-03-22T00:49:13.305Z,9.75
2023-03-22T00:51:39.585Z,9.89
2023-03-22T00:54:05.841Z,9.78
2023-03-22T00:56:32.108Z,10.15
2023-03-22T00:58:58.379Z,9.94
2023-03-22T01:01:24.674Z,9.80
2023-03-22T01:03:51.134Z,9.69
2023-03-22T01:06:17.466Z,9.13
2023-03-22T01:08:43.720Z,9.10
2023-03-22T01:11:10.029Z,7.88
2023-03-22T01:13:36.341Z,8.06
2023-03-22T01:16:02.661Z,7.06
2023-03-22T01:18:29.008Z,6.99
2023-03-22T01:20:55.263Z,6.75
2023-03-22T01:23:21.523Z,6.77
2023-03-22T01:25:47.792Z,7.48
2023-03-22T01:28:14.157Z,7.58
2023-03-22T01:30:40.770Z,7.17
2023-03-22T01:33:07.217Z,6.97
2023-03-22T01:35:33.512Z,6.94
2023-03-22T01:37:59.774Z,6.88
2023-03-22T01:40:26.050Z,6.22
2023-03-22T01:42:52.331Z,6.36
2023-03-22T01:45:18.591Z,6.34
2023-03-22T01:47:44.918Z,7.09
2023-03-22T01:50:11.229Z,8.81
2023-03-22T01:52:37.487Z,9.46
2023-03-22T01:55:03.763Z,9.01
2023-03-22T01:57:30.025Z,9.25
2023-03-22T01:59:56.275Z,8.70
2023-03-22T02:02:22.595Z,8.24
2023-03-22T02:04:48.899Z,7.50
2023-03-22T02:07:15.165Z,7.08
2023-03-22T02:09:41.439Z,7.06
2023-03-22T02:12:07.715Z,7.35
2023-03-22T02:14:33.984Z,7.15
2023-03-22T02:17:00.259Z,7.58
2023-03-22T02:19:26.514Z,16.39
2023-03-22T02:21:52.821Z,22.70
2023-03-22T02:24:19.107Z,16.89
2023-03-22T02:26:45.381Z,11.04
2023-03-22T02:29:11.655Z,8.25
2023-03-22T02:31:37.974Z,7.94
2023-03-22T02:34:04.317Z,7.99
2023-03-22T02:36:30.588Z,7.63
2023-03-22T02:38:56.849Z,7.28
2023-03-22T02:41:23.114Z,7.72
2023-03-22T02:43:49.392Z,7.44
2023-03-22T02:46:15.686Z,7.67
2023-03-22T02:48:41.971Z,8.14
2023-03-22T02:51:08.263Z,8.24
2023-03-22T02:53:34.529Z,8.44
2023-03-22T02:56:00.825Z,8.74
2023-03-22T02:58:27.103Z,8.20
2023-03-22T03:00:53.365Z,8.10
2023-03-22T03:03:19.685Z,8.51
2023-03-22T03:05:45.966Z,8.34
2023-03-22T03:08:12.256Z,7.74
2023-03-22T03:10:38.788Z,7.93
2023-03-22T03:13:05.201Z,7.83
2023-03-22T03:15:31.465Z,7.61
2023-03-22T03:17:57.870Z,7.40
2023-03-22T03:20:24.153Z,7.38
2023-03-22T03:22:50.474Z,7.23
2023-03-22T03:25:16.777Z,7.41
2023-03-22T03:27:43.039Z,7.48
2023-03-22T03:30:09.300Z,7.51
2023-03-22T03:32:35.556Z,6.62
2023-03-22T03:35:01.820Z,6.79
2023-03-22T03:37:28.077Z,7.67
2023-03-22T03:39:54.395Z,7.82
2023-03-22T03:42:20.641Z,8.31
2023-03-22T03:44:46.897Z,9.10
2023-03-22T03:47:13.157Z,9.15
2023-03-22T03:49:39.425Z,9.08
2023-03-22T03:52:05.693Z,7.96
2023-03-22T03:54:31.985Z,6.78
2023-03-22T03:56:58.238Z,6.80
2023-03-22T03:59:24.487Z,6.78
2023-03-22T04:01:50.815Z,7.32
2023-03-22T04:04:17.145Z,7.06
2023-03-22T04:06:43.439Z,6.79
2023-03-22T04:09:09.694Z,7.07
2023-03-22T04:11:35.971Z,6.96
2023-03-22T04:14:02.238Z,6.62
2023-03-22T04:16:28.541Z,6.54
2023-03-22T04:18:54.910Z,6.76
2023-03-22T04:21:21.220Z,6.49
2023-03-22T04:23:47.494Z,6.69
2023-03-22T04:26:13.745Z,7.07
2023-03-22T04:28:40.027Z,7.77
2023-03-22T04:31:06.311Z,8.05
2023-03-22T04:33:32.621Z,7.46
2023-03-22T04:35:58.902Z,7.18
2023-03-22T04:38:25.209Z,7.43
2023-03-22T04:40:51.501Z,6.97
2023-03-22T04:43:17.753Z,6.89
2023-03-22T04:45:44.026Z,7.30
2023-03-22T04:48:10.434Z,7.22
2023-03-22T04:50:36.929Z,7.09
2023-03-22T04:53:03.225Z,7.06
2023-03-22T04:55:29.486Z,6.93
2023-03-22T04:57:55.734Z,7.50
2023-03-22T05:00:21.993Z,7.40
2023-03-22T05:02:48.322Z,7.11
2023-03-22T05:05:14.613Z,6.81
2023-03-22T05:07:40.863Z,6.79
2023-03-22T05:10:07.115Z,6.78
2023-03-22T05:12:33.401Z,6.75
2023-03-22T05:14:59.666Z,6.94
2023-03-22T05:17:25.917Z,6.15
2023-03-22T05:19:52.198Z,6.06
2023-03-22T05:22:18.450Z,6.32
2023-03-22T05:24:44.768Z,6.32
2023-03-22T05:27:11.030Z,6.14
2023-03-22T05:29:37.279Z,5.99
2023-03-22T05:32:03.546Z,6.32
2023-03-22T05:34:29.829Z,6.13
2023-03-22T05:36:56.107Z,6.00
2023-03-22T05:39:22.361Z,5.84
2023-03-22T05:41:48.613Z,6.06
2023-03-22T05:44:14.885Z,6.10
2023-03-22T05:46:41.175Z,6.12
2023-03-22T05:49:07.489Z,5.72
2023-03-22T05:51:33.765Z,6.15
2023-03-22T05:54:00.047Z,6.28
2023-03-22T05:56:26.328Z,6.13
2023-03-22T05:58:52.715Z,6.03
2023-03-22T06:01:18.990Z,6.47
2023-03-22T06:03:45.340Z,6.40
2023-03-22T06:06:11.644Z,5.99
2023-03-22T06:08:37.952Z,5.95
2023-03-22T06:11:04.266Z,5.98
2023-03-22T06:13:30.598Z,6.47
2023-03-22T06:15:56.891Z,6.46
2023-03-22T06:18:23.146Z,6.60
2023-03-22T06:20:49.434Z,6.34
2023-03-22T06:23:15.683Z,6.58
2023-03-22T06:25:41.964Z,6.83
2023-03-22T06:28:08.855Z,7.58
2023-03-22T06:30:35.240Z,6.97
2023-03-22T06:33:01.520Z,6.70
2023-03-22T06:35:27.831Z,7.25
2023-03-22T06:37:54.119Z,8.89
2023-03-22T06:40:20.406Z,14.86
2023-03-22T06:42:46.690Z,9.83
2023-03-22T06:45:12.958Z,7.95
2023-03-22T06:47:39.221Z,7.43
2023-03-22T06:50:05.516Z,8.10
2023-03-22T06:52:31.806Z,8.64
2023-03-22T06:54:58.122Z,8.00
2023-03-22T06:57:24.387Z,7.81
2023-03-22T06:59:50.690Z,7.95
2023-03-22T07:02:16.947Z,7.84
2023-03-22T07:04:43.281Z,7.51
2023-03-22T07:07:09.596Z,7.05
2023-03-22T07:09:35.903Z,7.42
2023-03-22T07:12:02.163Z,7.71
2023-03-22T07:14:28.689Z,7.75
2023-03-22T07:16:54.994Z,7.94
2023-03-22T07:19:21.263Z,7.81
2023-03-22T07:21:47.507Z,8.22
2023-03-22T07:24:13.797Z,7.56
2023-03-22T07:26:40.074Z,7.62
2023-03-22T07:29:06.381Z,8.14
2023-03-22T07:31:32.637Z,7.89
2023-03-22T07:33:58.994Z,7.80
2023-03-22T07:36:25.295Z,7.82
2023-03-22T07:38:51.572Z,7.25
2023-03-22T07:41:17.841Z,7.22
2023-03-22T07:43:54.042Z,6.84
2023-03-22T07:46:21.640Z,6.24
2023-03-22T07:48:47.972Z,5.80
2023-03-22T07:51:14.250Z,5.42
2023-03-22T07:53:40.498Z,5.41
2023-03-22T07:56:06.771Z,4.86
2023-03-22T07:58:33.041Z,5.03
2023-03-22T08:00:59.314Z,5.27
2023-03-22T08:03:25.606Z,5.66
2023-03-22T08:05:51.901Z,5.70
2023-03-22T08:08:18.162Z,5.62
2023-03-22T08:10:44.405Z,5.73
2023-03-22T08:13:10.691Z,5.59
2023-03-22T08:15:37.143Z,5.32
2023-03-22T08:18:03.551Z,5.43
2023-03-22T08:20:29.813Z,5.38
2023-03-22T08:22:56.076Z,5.34
2023-03-22T08:25:22.377Z,4.44
2023-03-22T08:27:48.654Z,3.20
2023-03-22T08:30:14.941Z,3.05
2023-03-22T08:32:41.225Z,3.40
2023-03-22T08:35:07.494Z,3.80
2023-03-22T08:37:33.781Z,4.40
2023-03-22T08:40:00.123Z,4.32
2023-03-22T08:42:26.418Z,4.36
2023-03-22T08:44:52.671Z,4.87
2023-03-22T08:47:18.918Z,4.89
2023-03-22T08:49:45.190Z,4.64
2023-03-22T08:52:11.463Z,4.86
2023-03-22T08:54:37.748Z,4.69
2023-03-22T08:57:04.027Z,4.56
2023-03-22T08:59:30.266Z,5.07
2023-03-22T09:01:56.619Z,4.67
2023-03-22T09:04:23.031Z,4.23
2023-03-22T09:06:49.304Z,4.43
2023-03-22T09:09:15.578Z,4.51
2023-03-22T09:11:41.888Z,5.08
2023-03-22T09:14:08.141Z,4.64
2023-03-22T09:16:35.019Z,4.66
2023-03-22T09:19:01.332Z,4.58
2023-03-22T09:21:27.605Z,4.70
2023-03-22T09:23:53.853Z,4.77
2023-03-22T09:26:20.172Z,4.12
2023-03-22T09:28:46.457Z,4.21
2023-03-22T09:31:12.760Z,3.85
2023-03-22T09:33:39.045Z,3.50
2023-03-22T09:36:05.354Z,3.45
2023-03-22T09:38:31.667Z,3.32
2023-03-22T09:40:57.916Z,3.08
2023-03-22T09:43:24.194Z,3.16
2023-03-22T09:45:50.461Z,3.25
2023-03-22T09:48:16.797Z,2.93
2023-03-22T09:50:43.087Z,3.14
2023-03-22T09:53:09.376Z,3.50
2023-03-22T09:55:35.653Z,3.62
2023-03-22T09:58:01.918Z,3.49
2023-03-22T10:00:28.252Z,3.15
2023-03-22T10:02:54.618Z,3.53
2023-03-22T10:05:21.175Z,3.55
2023-03-22T10:07:47.464Z,3.29
2023-03-22T10:10:13.737Z,3.16
2023-03-22T10:12:39.993Z,2.84
2023-03-22T10:15:06.353Z,3.01
2023-03-22T10:17:32.642Z,2.65
2023-03-22T10:19:58.948Z,3.16
2023-03-22T10:22:25.302Z,3.37
2023-03-22T10:24:51.604Z,3.31
2023-03-22T10:27:17.887Z,2.99
2023-03-22T10:29:44.145Z,3.01
2023-03-22T10:32:10.425Z,3.32
2023-03-22T10:34:36.722Z,3.28
2023-03-22T10:37:02.990Z,3.33
2023-03-22T10:39:29.258Z,2.89
2023-03-22T10:41:57.890Z,3.31
2023-03-22T10:44:24.361Z,3.18
2023-03-22T10:46:50.695Z,3.08
2023-03-22T10:49:16.982Z,3.04
2023-03-22T10:51:43.239Z,3.09
2023-03-22T10:54:09.479Z,3.09
2023-03-22T10:56:35.799Z,3.24
2023-03-22T10:59:02.075Z,3.10
2023-03-22T11:01:28.472Z,3.49
2023-03-22T11:03:54.758Z,3.25
2023-03-22T11:06:21.046Z,3.19
2023-03-22T11:08:47.331Z,3.00
2023-03-22T11:11:13.605Z,2.83
2023-03-22T11:13:39.863Z,2.71
2023-03-22T11:16:06.172Z,2.71
2023-03-22T11:18:32.470Z,2.67
2023-03-22T11:20:58.749Z,2.45
2023-03-22T11:23:25.016Z,2.49
2023-03-22T11:25:51.268Z,2.22
2023-03-22T11:28:17.522Z,2.20
2023-03-22T11:30:43.777Z,2.37
2023-03-22T11:33:10.111Z,2.43
2023-03-22T11:35:36.507Z,2.43
2023-03-22T11:38:02.961Z,2.49
2023-03-22T11:40:29.240Z,2.19
2023-03-22T11:42:55.526Z,2.43
2023-03-22T11:45:21.792Z,3.08
2023-03-22T11:47:48.164Z,3.36
2023-03-22T11:50:14.497Z,3.30
2023-03-22T11:52:40.809Z,3.32
2023-03-22T11:55:07.153Z,3.02
2023-03-22T11:57:33.402Z,3.00
2023-03-22T11:59:59.694Z,3.08
2023-03-22T12:02:26.069Z,2.95
2023-03-22T12:04:52.468Z,2.69
2023-03-22T12:07:18.759Z,2.71
2023-03-22T12:09:45.061Z,2.98
2023-03-22T12:12:11.703Z,3.31
2023-03-22T12:14:38.035Z,2.91
2023-03-22T12:17:04.404Z,2.86
2023-03-22T12:19:30.683Z,2.83
2023-03-22T12:21:57.053Z,2.67
2023-03-22T12:24:23.337Z,2.73
2023-03-22T12:26:49.621Z,2.91
2023-03-22T12:29:15.868Z,3.11
2023-03-22T12:31:42.235Z,2.84
2023-03-22T12:34:08.503Z,2.87
2023-03-22T12:36:34.773Z,3.69
2023-03-22T12:39:01.045Z,2.96
2023-03-22T12:41:27.319Z,3.06
2023-03-22T12:43:53.623Z,2.60
2023-03-22T12:46:19.926Z,2.62
2023-03-22T12:48:46.764Z,2.57
2023-03-22T12:51:13.067Z,2.74
2023-03-22T12:53:39.328Z,2.61
2023-03-22T12:56:05.668Z,2.69
2023-03-22T12:58:31.942Z,2.63
2023-03-22T13:00:58.322Z,2.47
2023-03-22T13:03:24.718Z,2.71
2023-03-22T13:05:51.048Z,2.66
2023-03-22T13:08:17.318Z,2.84
2023-03-22T13:10:43.605Z,3.16
2023-03-22T13:13:09.849Z,3.52
2023-03-22T13:15:41.792Z,3.37
2023-03-22T13:18:08.900Z,3.31
2023-03-22T13:20:35.202Z,3.42
2023-03-22T13:23:01.465Z,3.27
2023-03-22T13:25:27.745Z,3.18
2023-03-22T13:27:54.018Z,3.23
2023-03-22T13:30:20.367Z,3.33
2023-03-22T13:32:46.680Z,3.27
2023-03-22T13:35:13.015Z,2.94
2023-03-22T13:37:39.260Z,3.20
2023-03-22T13:40:05.537Z,2.98
2023-03-22T13:42:31.826Z,3.38
2023-03-22T13:44:58.125Z,2.92
2023-03-22T13:47:24.416Z,3.83
2023-03-22T13:49:50.740Z,3.43
2023-03-22T13:52:17.020Z,2.74
2023-03-22T13:54:43.289Z,3.38
2023-03-22T13:57:09.569Z,3.53
2023-03-22T13:59:35.836Z,3.62
2023-03-22T14:02:02.145Z,3.48
2023-03-22T14:04:28.446Z,3.43
2023-03-22T14:06:54.730Z,3.04
2023-03-22T14:09:20.977Z,4.46
2023-03-22T14:11:47.250Z,6.59
2023-03-22T14:14:13.530Z,9.37
2023-03-22T14:16:39.796Z,8.37
2023-03-22T14:19:06.076Z,4.00
2023-03-22T14:21:34.423Z,2.78
